Time;durP1;ratioP1;P1;durP2;ratioP2;P2;SDS_P1;SDS_P2;PMS_P1;PMS_P2;Temp;Humidity;BMP_temperature;BMP_pressure;BME280_temperature;BME280_humidity;BME280_pressure;Samples;Min_cycle;Max_cycle;Signal;HPM_P1;HPM_P2
2022/03/09 00:00:04;;;;;;;;;;;;;;;;;;1035619;28;930;-28
2022/03/09 00:00:35;;;;;;;;;;;;;;;;;;1035204;28;763;-34
2022/03/09 00:01:05;;;;;;;;;;;;;;;;;;1035655;28;870;-30
2022/03/09 00:01:36;;;;;;;;;;;;;;;;;;1035648;28;816;-32
2022/03/09 00:02:06;;;;;;;;;;;;;;;;;;1035872;28;922;-31
2022/03/09 00:02:36;;;;;;;;;;;;;;;;;;1035619;28;922;-28
2022/03/09 00:03:07;;;;;;;;;;;;;;;;;;1035579;28;997;-27
2022/03/09 00:03:37;;;;;;;;;;;;;;;;;;1035672;28;947;-34
2022/03/09 00:04:07;;;;;;;;;;;;;;;;;;1035721;28;914;-32
2022/03/09 00:04:38;;;;;;;;;;;;;;;;;;1035738;28;895;-30
2022/03/09 00:05:08;;;;;;;;;;;;;;;;;;1035068;28;985;-31
2022/03/09 00:05:39;;;;;;;;;;;;;;;;;;1035633;28;792;-30
2022/03/09 00:06:09;;;;;;;;;;;;;;;;;;1035775;28;993;-33
2022/03/09 00:06:39;;;;;;;;;;;;;;;;;;1035645;28;1054;-30
2022/03/09 00:07:10;;;;;;;;;;;;;;;;;;1035682;28;934;-29
2022/03/09 00:07:40;;;;;;;;;;;;;;;;;;1035572;28;866;-30
2022/03/09 00:08:10;;;;;;;;;;;;;;;;;;1035686;28;954;-33
2022/03/09 00:08:41;;;;;;;;;;;;;;;;;;1035687;28;791;-32
2022/03/09 00:09:13;;;;;;;;;;;;;;;;;;1035694;28;926;-31
2022/03/09 00:09:43;;;;;;;;;;;;;;;;;;1035766;28;883;-34
2022/03/09 00:10:14;;;;;;;;;;;;;;;;;;1035603;28;1640;-32
2022/03/09 00:10:44;;;;;;;;;;;;;;;;;;1035665;28;855;-31
2022/03/09 00:11:15;;;;;;;;;;;;;;;;;;1035624;28;949;-32
2022/03/09 00:11:45;;;;;;;;;;;;;;;;;;1035748;28;772;-33
2022/03/09 00:12:15;;;;;;;;;;;;;;;;;;1035537;28;851;-32
2022/03/09 00:12:46;;;;;;;;;;;;;;;;;;1035162;28;862;-33
2022/03/09 00:13:16;;;;;;;;;;;;;;;;;;1035628;28;831;-32
2022/03/09 00:13:47;;;;;;;;;;;;;;;;;;1035651;28;887;-32
2022/03/09 00:14:17;;;;;;;;;;;;;;;;;;1035709;28;842;-33
2022/03/09 00:14:47;;;;;;;;;;;;;;;;;;1035255;28;966;-29
2022/03/09 00:15:18;;;;;;;;;;;;;;;;;;1035181;28;879;-33
2022/03/09 00:15:48;;;;;;;;;;;;;;;;;;1035584;28;993;-31
2022/03/09 00:16:19;;;;;;;;;;;;;;;;;;1035610;28;918;-31
2022/03/09 00:16:50;;;;;;;;;;;;;;;;;;1035637;28;843;-29
2022/03/09 00:17:21;;;;;;;;;;;;;;;;;;1035600;28;846;-31
2022/03/09 00:17:51;;;;;;;;;;;;;;;;;;1035430;28;1756;-34
2022/03/09 00:18:21;;;;;;;;;;;;;;;;;;1035775;28;875;-34
2022/03/09 00:18:52;;;;;;;;;;;;;;;;;;1035424;28;1918;-29
2022/03/09 00:19:22;;;;;;;;;;;;;;;;;;1035814;28;866;-31
2022/03/09 00:19:53;;;;;;;;;;;;;;;;;;1034926;28;815;-32
2022/03/09 00:20:23;;;;;;;;;;;;;;;;;;1035749;28;828;-30
2022/03/09 00:20:54;;;;;;;;;;;;;;;;;;1035596;28;878;-31
2022/03/09 00:21:24;;;;;;;;;;;;;;;;;;1035607;28;922;-29
2022/03/09 00:21:54;;;;;;;;;;;;;;;;;;1035536;28;874;-32
2022/03/09 00:22:25;;;;;;;;;;;;;;;;;;1035700;28;780;-28
2022/03/09 00:22:55;;;;;;;;;;;;;;;;;;1035567;28;807;-34
2022/03/09 00:23:25;;;;;;;;;;;;;;;;;;1035752;28;874;-31
2022/03/09 00:23:55;;;;;;;;;;;;;;;;;;1035093;28;890;-32
2022/03/09 00:24:26;;;;;;;;;;;;;;;;;;1035397;28;843;-32
2022/03/09 00:24:56;;;;;;;;;;;;;;;;;;1035262;28;835;-29
2022/03/09 00:25:26;;;;;;;;;;;;;;;;;;1031727;28;1279;-30
2022/03/09 00:25:57;;;;;;;;;;;;;;;;;;1031595;28;903;-32
2022/03/09 00:26:27;;;;;;;;;;;;;;;;;;1031601;28;828;-28
2022/03/09 00:26:59;;;;;;;;;;;;;;;;;;1031602;28;780;-32
2022/03/09 00:27:31;;;;;;;;;;;;;;;;;;1030409;28;1192;-34
2022/03/09 00:28:02;;;;;;;;;;;;;;;;;;1031294;28;800;-33
2022/03/09 00:28:33;;;;;;;;;;;;;;;;;;1031134;28;874;-31
2022/03/09 00:29:04;;;;;;;;;;;;;;;;;;1031417;28;883;-32
2022/03/09 00:29:34;;;;;;;;;;;;;;;;;;1031474;28;835;-34
2022/03/09 00:30:05;;;;;;;;;;;;;;;;;;1031768;28;883;-31
2022/03/09 00:30:36;;;;;;;;;;;;;;;;;;1031345;28;878;-32
2022/03/09 00:31:06;;;;;;;;;;;;;;;;;;1031766;28;855;-30
2022/03/09 00:31:37;;;;;;;;;;;;;;;;;;1031541;28;839;-30
2022/03/09 00:32:07;;;;;;;;;;;;;;;;;;1032319;28;1083;-32
2022/03/09 00:32:38;;;;;;;;;;;;;;;;;;1035459;28;826;-33
2022/03/09 00:33:08;;;;;;;;;;;;;;;;;;1035692;28;855;-27
2022/03/09 00:33:39;;;;;;;;;;;;;;;;;;1035620;28;965;-31
2022/03/09 00:34:09;;;;;;;;;;;;;;;;;;1035788;28;890;-33
2022/03/09 00:34:40;;;;;;;;;;;;;;;;;;1034973;28;859;-31
2022/03/09 00:35:10;;;;;;;;;;;;;;;;;;1035803;28;788;-32
2022/03/09 00:35:42;;;;;;;;;;;;;;;;;;1035517;28;797;-33
2022/03/09 00:36:12;;;;;;;;;;;;;;;;;;1035603;28;874;-30
2022/03/09 00:36:43;;;;;;;;;;;;;;;;;;1035639;28;866;-32
2022/03/09 00:37:13;;;;;;;;;;;;;;;;;;1035510;28;942;-31
2022/03/09 00:37:44;;;;;;;;;;;;;;;;;;1035523;28;827;-34
2022/03/09 00:38:14;;;;;;;;;;;;;;;;;;1035551;28;1603;-33
2022/03/09 00:38:44;;;;;;;;;;;;;;;;;;1035415;28;1961;-31
2022/03/09 00:39:15;;;;;;;;;;;;;;;;;;1035606;28;922;-32
2022/03/09 00:39:45;;;;;;;;;;;;;;;;;;1035515;28;852;-32
2022/03/09 00:40:15;;;;;;;;;;;;;;;;;;1035634;28;827;-27
2022/03/09 00:40:48;;;;;;;;;;;;;;;;;;1035547;28;898;-33
2022/03/09 00:41:18;;;;;;;;;;;;;;;;;;1035547;28;984;-31
2022/03/09 00:41:49;;;;;;;;;;;;;;;;;;1035688;28;890;-31
2022/03/09 00:42:19;;;;;;;;;;;;;;;;;;1034886;28;851;-31
2022/03/09 00:42:49;;;;;;;;;;;;;;;;;;1035507;28;961;-28
2022/03/09 00:43:20;;;;;;;;;;;;;;;;;;1035672;28;816;-32
2022/03/09 00:43:51;;;;;;;;;;;;;;;;;;1035464;28;846;-32
2022/03/09 00:44:21;;;;;;;;;;;;;;;;;;1035641;28;1304;-32
2022/03/09 00:44:52;;;;;;;;;;;;;;;;;;1035478;28;914;-34
2022/03/09 00:45:23;;;;;;;;;;;;;;;;;;1035627;28;938;-31
2022/03/09 00:45:53;;;;;;;;;;;;;;;;;;1035391;28;1001;-27
2022/03/09 00:46:23;;;;;;;;;;;;;;;;;;1035556;28;885;-31
2022/03/09 00:46:54;;;;;;;;;;;;;;;;;;1035575;28;907;-32
2022/03/09 00:47:24;;;;;;;;;;;;;;;;;;1035541;28;950;-32
2022/03/09 00:47:54;;;;;;;;;;;;;;;;;;1035333;28;1000;-29
2022/03/09 00:48:25;;;;;;;;;;;;;;;;;;1035717;28;881;-29
2022/03/09 00:48:55;;;;;;;;;;;;;;;;;;1035398;28;799;-32
2022/03/09 00:49:26;;;;;;;;;;;;;;;;;;1035225;28;976;-33
2022/03/09 00:49:56;;;;;;;;;;;;;;;;;;1035298;28;886;-33
2022/03/09 00:50:26;;;;;;;;;;;;;;;;;;1035625;28;850;-33
2022/03/09 00:50:57;;;;;;;;;;;;;;;;;;1035448;28;938;-32
2022/03/09 00:51:27;;;;;;;;;;;;;;;;;;1035546;28;933;-29
2022/03/09 00:51:57;;;;;;;;;;;;;;;;;;1035425;28;929;-28
2022/03/09 00:52:27;;;;;;;;;;;;;;;;;;1035785;28;874;-32
2022/03/09 00:52:58;;;;;;;;;;;;;;;;;;1035393;28;840;-33
2022/03/09 00:53:29;;;;;;;;;;;;;;;;;;1035585;28;855;-31
2022/03/09 00:54:00;;;;;;;;;;;;;;;;;;1035587;28;846;-29
2022/03/09 00:54:30;;;;;;;;;;;;;;;;;;1035605;28;919;-31
2022/03/09 00:55:00;;;;;;;;;;;;;;;;;;1035609;28;855;-30
2022/03/09 00:55:31;;;;;;;;;;;;;;;;;;1035498;28;898;-32
2022/03/09 00:56:01;;;;;;;;;;;;;;;;;;1035557;28;929;-34
2022/03/09 00:56:33;;;;;;;;;;;;;;;;;;1035559;28;827;-33
2022/03/09 00:57:03;;;;;;;;;;;;;;;;;;1034910;28;866;-30
2022/03/09 00:57:34;;;;;;;;;;;;;;;;;;1035441;28;894;-32
2022/03/09 00:58:04;;;;;;;;;;;;;;;;;;1035512;28;866;-31
2022/03/09 00:58:35;;;;;;;;;;;;;;;;;;1035422;28;1910;-31
2022/03/09 00:59:05;;;;;;;;;;;;;;;;;;1035489;28;906;-33
2022/03/09 00:59:36;;;;;;;;;;;;;;;;;;1035450;28;958;-34
2022/03/09 01:00:06;;;;;;;;;;;;;;;;;;1035504;28;1005;-27
2022/03/09 01:00:37;;;;;;;;;;;;;;;;;;1035632;28;945;-29
2022/03/09 01:01:08;;;;;;;;;;;;;;;;;;1035444;28;783;-33
2022/03/09 01:01:38;;;;;;;;;;;;;;;;;;1035594;28;903;-29
2022/03/09 01:02:09;;;;;;;;;;;;;;;;;;1035416;28;937;-30
2022/03/09 01:02:41;;;;;;;;;;;;;;;;;;1035576;28;831;-32
2022/03/09 01:03:11;;;;;;;;;;;;;;;;;;1035512;28;846;-33
2022/03/09 01:03:41;;;;;;;;;;;;;;;;;;1035479;28;927;-32
2022/03/09 01:04:12;;;;;;;;;;;;;;;;;;1035138;28;925;-30
2022/03/09 01:04:42;;;;;;;;;;;;;;;;;;1035238;28;834;-30
2022/03/09 01:05:13;;;;;;;;;;;;;;;;;;1035382;28;922;-29
2022/03/09 01:05:44;;;;;;;;;;;;;;;;;;1035658;28;917;-32
2022/03/09 01:06:15;;;;;;;;;;;;;;;;;;1035339;28;875;-33
2022/03/09 01:06:45;;;;;;;;;;;;;;;;;;1035631;28;799;-31
2022/03/09 01:07:16;;;;;;;;;;;;;;;;;;1035468;28;1036;-31
2022/03/09 01:07:46;;;;;;;;;;;;;;;;;;1035370;28;799;-29
2022/03/09 01:08:16;;;;;;;;;;;;;;;;;;1035487;28;970;-32
2022/03/09 01:08:47;;;;;;;;;;;;;;;;;;1035435;28;870;-32
2022/03/09 01:09:17;;;;;;;;;;;;;;;;;;1035551;28;839;-29
2022/03/09 01:09:47;;;;;;;;;;;;;;;;;;1035596;28;862;-29
2022/03/09 01:10:18;;;;;;;;;;;;;;;;;;1035383;28;781;-31
2022/03/09 01:10:48;;;;;;;;;;;;;;;;;;1035563;28;862;-30
2022/03/09 01:11:19;;;;;;;;;;;;;;;;;;1035546;28;973;-28
2022/03/09 01:11:49;;;;;;;;;;;;;;;;;;1034894;28;889;-33
2022/03/09 01:12:20;;;;;;;;;;;;;;;;;;1035466;28;930;-33
2022/03/09 01:12:50;;;;;;;;;;;;;;;;;;1035410;28;985;-30
2022/03/09 01:13:21;;;;;;;;;;;;;;;;;;1035596;28;969;-32
2022/03/09 01:13:52;;;;;;;;;;;;;;;;;;1035442;28;823;-34
2022/03/09 01:14:22;;;;;;;;;;;;;;;;;;1035519;28;819;-29
2022/03/09 01:14:53;;;;;;;;;;;;;;;;;;1035517;28;1064;-33
2022/03/09 01:15:23;;;;;;;;;;;;;;;;;;1035475;28;1389;-31
2022/03/09 01:15:54;;;;;;;;;;;;;;;;;;1035463;28;815;-29
2022/03/09 01:16:25;;;;;;;;;;;;;;;;;;1035595;28;831;-29
2022/03/09 01:16:56;;;;;;;;;;;;;;;;;;1035356;28;871;-31
2022/03/09 01:17:26;;;;;;;;;;;;;;;;;;1035621;28;996;-32
2022/03/09 01:17:57;;;;;;;;;;;;;;;;;;1035212;28;997;-31
2022/03/09 01:18:27;;;;;;;;;;;;;;;;;;1035533;28;874;-31
2022/03/09 01:18:58;;;;;;;;;;;;;;;;;;1035149;28;1910;-33
2022/03/09 01:19:28;;;;;;;;;;;;;;;;;;1035158;28;842;-30
2022/03/09 01:19:59;;;;;;;;;;;;;;;;;;1035432;28;917;-31
2022/03/09 01:20:30;;;;;;;;;;;;;;;;;;1035559;28;981;-28
2022/03/09 01:21:00;;;;;;;;;;;;;;;;;;1035252;28;1049;-35
2022/03/09 01:21:31;;;;;;;;;;;;;;;;;;1035540;28;878;-31
2022/03/09 01:22:02;;;;;;;;;;;;;;;;;;1035367;28;934;-29
2022/03/09 01:22:32;;;;;;;;;;;;;;;;;;1035514;28;894;-28
2022/03/09 01:23:03;;;;;;;;;;;;;;;;;;1035453;28;887;-28
2022/03/09 01:23:34;;;;;;;;;;;;;;;;;;1035430;28;910;-31
2022/03/09 01:24:04;;;;;;;;;;;;;;;;;;1035487;28;915;-28
2022/03/09 01:24:35;;;;;;;;;;;;;;;;;;1035479;28;807;-31
2022/03/09 01:25:05;;;;;;;;;;;;;;;;;;1034721;28;1130;-31
2022/03/09 01:25:36;;;;;;;;;;;;;;;;;;1031477;28;922;-28
2022/03/09 01:26:06;;;;;;;;;;;;;;;;;;1031250;28;1025;-32
2022/03/09 01:26:37;;;;;;;;;;;;;;;;;;1030804;28;886;-31
2022/03/09 01:27:07;;;;;;;;;;;;;;;;;;1031347;28;910;-31
2022/03/09 01:27:37;;;;;;;;;;;;;;;;;;1031257;28;838;-31
2022/03/09 01:28:08;;;;;;;;;;;;;;;;;;1031458;28;826;-30
2022/03/09 01:28:38;;;;;;;;;;;;;;;;;;1031322;28;982;-29
2022/03/09 01:29:09;;;;;;;;;;;;;;;;;;1031416;28;899;-32
2022/03/09 01:29:39;;;;;;;;;;;;;;;;;;1031448;28;870;-30
2022/03/09 01:30:09;;;;;;;;;;;;;;;;;;1031335;28;1005;-32
2022/03/09 01:30:40;;;;;;;;;;;;;;;;;;1031474;28;914;-30
2022/03/09 01:31:10;;;;;;;;;;;;;;;;;;1031171;28;783;-32
2022/03/09 01:31:41;;;;;;;;;;;;;;;;;;1031570;28;879;-34
2022/03/09 01:32:11;;;;;;;;;;;;;;;;;;1032125;28;1153;-30
2022/03/09 01:32:41;;;;;;;;;;;;;;;;;;1035485;28;862;-30
2022/03/09 01:33:12;;;;;;;;;;;;;;;;;;1035368;28;926;-31
2022/03/09 01:33:43;;;;;;;;;;;;;;;;;;1035514;28;982;-29
2022/03/09 01:34:13;;;;;;;;;;;;;;;;;;1034721;28;882;-28
2022/03/09 01:34:44;;;;;;;;;;;;;;;;;;1035583;28;1017;-29
2022/03/09 01:35:14;;;;;;;;;;;;;;;;;;1035283;28;874;-32
2022/03/09 01:35:46;;;;;;;;;;;;;;;;;;1035591;28;804;-33
2022/03/09 01:36:16;;;;;;;;;;;;;;;;;;1035319;28;953;-31
2022/03/09 01:36:46;;;;;;;;;;;;;;;;;;1035508;28;1009;-34
2022/03/09 01:37:17;;;;;;;;;;;;;;;;;;1035399;28;882;-30
2022/03/09 01:37:47;;;;;;;;;;;;;;;;;;1035328;28;985;-32
2022/03/09 01:38:17;;;;;;;;;;;;;;;;;;1035433;28;886;-31
2022/03/09 01:38:48;;;;;;;;;;;;;;;;;;1035481;28;1994;-33
2022/03/09 01:39:18;;;;;;;;;;;;;;;;;;1035266;28;807;-34
2022/03/09 01:39:48;;;;;;;;;;;;;;;;;;1035544;28;826;-30
2022/03/09 01:40:19;;;;;;;;;;;;;;;;;;1035307;28;798;-29
2022/03/09 01:40:49;;;;;;;;;;;;;;;;;;1035515;28;1630;-32
2022/03/09 01:41:19;;;;;;;;;;;;;;;;;;1034759;28;863;-30
2022/03/09 01:41:50;;;;;;;;;;;;;;;;;;1035386;28;834;-30
2022/03/09 01:42:21;;;;;;;;;;;;;;;;;;1035501;28;815;-31
2022/03/09 01:42:51;;;;;;;;;;;;;;;;;;1035512;28;934;-29
2022/03/09 01:43:22;;;;;;;;;;;;;;;;;;1035409;28;859;-29
2022/03/09 01:44:09;;;;;;;;;;;;;;;;;;1035321;28;1214;-32
2022/03/09 01:44:39;;;;;;;;;;;;;;;;;;1035329;28;765;-31
2022/03/09 01:45:10;;;;;;;;;;;;;;;;;;1035498;28;882;-31
2022/03/09 01:45:41;;;;;;;;;;;;;;;;;;1035469;28;938;-33
2022/03/09 01:46:11;;;;;;;;;;;;;;;;;;1035184;28;1358;-33
2022/03/09 01:46:46;;;;;;;;;;;;;;;;;;1035473;28;1113;-30
2022/03/09 01:47:16;;;;;;;;;;;;;;;;;;1035302;28;925;-33
2022/03/09 01:47:47;;;;;;;;;;;;;;;;;;1035442;28;957;-31
2022/03/09 01:48:18;;;;;;;;;;;;;;;;;;1035317;28;930;-27
2022/03/09 01:48:48;;;;;;;;;;;;;;;;;;1034761;28;954;-31
2022/03/09 01:49:19;;;;;;;;;;;;;;;;;;1035401;28;811;-34
2022/03/09 01:49:49;;;;;;;;;;;;;;;;;;1035399;28;879;-31
2022/03/09 01:50:20;;;;;;;;;;;;;;;;;;1035338;28;855;-33
2022/03/09 01:50:50;;;;;;;;;;;;;;;;;;1035435;28;941;-33
2022/03/09 01:51:21;;;;;;;;;;;;;;;;;;1035377;28;879;-32
2022/03/09 01:51:52;;;;;;;;;;;;;;;;;;1035335;28;902;-34
2022/03/09 01:52:23;;;;;;;;;;;;;;;;;;1035331;28;832;-30
2022/03/09 01:52:53;;;;;;;;;;;;;;;;;;1035402;28;989;-30
2022/03/09 01:53:24;;;;;;;;;;;;;;;;;;1035549;28;941;-30
2022/03/09 01:53:54;;;;;;;;;;;;;;;;;;1035328;28;918;-32
2022/03/09 01:54:25;;;;;;;;;;;;;;;;;;1035413;28;871;-35
2022/03/09 01:54:55;;;;;;;;;;;;;;;;;;1035420;28;918;-33
2022/03/09 01:55:25;;;;;;;;;;;;;;;;;;1035397;28;882;-32
2022/03/09 01:55:56;;;;;;;;;;;;;;;;;;1035443;28;953;-32
2022/03/09 01:56:27;;;;;;;;;;;;;;;;;;1034821;28;885;-31
2022/03/09 01:56:58;;;;;;;;;;;;;;;;;;1035447;28;918;-32
2022/03/09 01:57:29;;;;;;;;;;;;;;;;;;1035466;28;811;-28
2022/03/09 01:57:59;;;;;;;;;;;;;;;;;;1035243;28;874;-35
2022/03/09 01:58:30;;;;;;;;;;;;;;;;;;1035280;28;899;-32
2022/03/09 01:59:02;;;;;;;;;;;;;;;;;;1035319;28;1976;-32
2022/03/09 01:59:32;;;;;;;;;;;;;;;;;;1035504;28;799;-34
2022/03/09 02:00:03;;;;;;;;;;;;;;;;;;1035518;28;954;-30
2022/03/09 02:00:36;;;;;;;;;;;;;;;;;;1035406;28;689;-30
2022/03/09 02:01:06;;;;;;;;;;;;;;;;;;1030918;28;1275;-32
2022/03/09 02:01:37;;;;;;;;;;;;;;;;;;1031055;28;820;-35
2022/03/09 02:02:08;;;;;;;;;;;;;;;;;;1030941;28;800;-34
2022/03/09 02:02:38;;;;;;;;;;;;;;;;;;1031110;28;1013;-30
2022/03/09 02:03:09;;;;;;;;;;;;;;;;;;1035323;28;889;-31
2022/03/09 02:03:39;;;;;;;;;;;;;;;;;;1034829;28;855;-29
2022/03/09 02:04:09;;;;;;;;;;;;;;;;;;1035276;28;918;-29
2022/03/09 02:04:40;;;;;;;;;;;;;;;;;;1035368;28;859;-29
2022/03/09 02:05:12;;;;;;;;;;;;;;;;;;1035320;28;807;-31
2022/03/09 02:05:42;;;;;;;;;;;;;;;;;;1035358;28;1028;-33
2022/03/09 02:06:13;;;;;;;;;;;;;;;;;;1035515;28;823;-33
2022/03/09 02:06:43;;;;;;;;;;;;;;;;;;1035383;28;982;-28
2022/03/09 02:07:14;;;;;;;;;;;;;;;;;;1035338;28;874;-33
2022/03/09 02:10:11;;;;;;;;;;;;;;;;;;1035342;28;969;-33
2022/03/09 02:10:41;;;;;;;;;;;;;;;;;;1035422;28;895;-27
2022/03/09 02:11:12;;;;;;;;;;;;;;;;;;1034610;28;942;-32
2022/03/09 02:11:42;;;;;;;;;;;;;;;;;;1035548;28;823;-32
2022/03/09 02:12:14;;;;;;;;;;;;;;;;;;1035235;28;862;-26
2022/03/09 02:12:44;;;;;;;;;;;;;;;;;;1035372;28;875;-30
2022/03/09 02:13:15;;;;;;;;;;;;;;;;;;1035351;28;906;-33
2022/03/09 02:13:45;;;;;;;;;;;;;;;;;;1035277;28;843;-31
2022/03/09 02:14:25;;;;;;;;;;;;;;;;;;1035414;28;974;-30
2022/03/09 02:14:55;;;;;;;;;;;;;;;;;;1035404;28;859;-31
2022/03/09 02:15:26;;;;;;;;;;;;;;;;;;1035216;28;894;-32
2022/03/09 02:15:56;;;;;;;;;;;;;;;;;;1035468;28;863;-30
2022/03/09 02:16:27;;;;;;;;;;;;;;;;;;1035266;28;811;-29
2022/03/09 02:16:58;;;;;;;;;;;;;;;;;;1035507;28;1008;-29
2022/03/09 02:17:29;;;;;;;;;;;;;;;;;;1035185;28;954;-31
2022/03/09 02:18:00;;;;;;;;;;;;;;;;;;1035369;28;807;-30
2022/03/09 02:18:30;;;;;;;;;;;;;;;;;;1034769;28;898;-32
2022/03/09 02:19:01;;;;;;;;;;;;;;;;;;1035186;28;1947;-27
2022/03/09 02:19:32;;;;;;;;;;;;;;;;;;1035129;28;789;-29
2022/03/09 02:20:03;;;;;;;;;;;;;;;;;;1035547;28;838;-31
2022/03/09 02:20:36;;;;;;;;;;;;;;;;;;1035372;28;965;-31
2022/03/09 02:21:08;;;;;;;;;;;;;;;;;;1035369;28;1382;-29
2022/03/09 02:21:38;;;;;;;;;;;;;;;;;;1035218;28;1040;-30
2022/03/09 02:22:29;;;;;;;;;;;;;;;;;;1035328;28;855;-30
2022/03/09 02:23:00;;;;;;;;;;;;;;;;;;1034898;28;1305;-28
2022/03/09 02:23:31;;;;;;;;;;;;;;;;;;1035300;28;966;-31
2022/03/09 02:24:01;;;;;;;;;;;;;;;;;;1035417;28;917;-31
2022/03/09 02:24:32;;;;;;;;;;;;;;;;;;1035249;28;867;-33
2022/03/09 02:25:04;;;;;;;;;;;;;;;;;;1035192;28;1145;-31
2022/03/09 02:25:34;;;;;;;;;;;;;;;;;;1031103;28;977;-29
2022/03/09 02:26:05;;;;;;;;;;;;;;;;;;1030842;28;942;-32
2022/03/09 02:26:35;;;;;;;;;;;;;;;;;;1031409;28;871;-31
2022/03/09 02:27:06;;;;;;;;;;;;;;;;;;1031199;28;870;-31
2022/03/09 02:27:38;;;;;;;;;;;;;;;;;;1031174;28;882;-32
2022/03/09 02:28:08;;;;;;;;;;;;;;;;;;1031160;28;890;-31
2022/03/09 02:28:39;;;;;;;;;;;;;;;;;;1031259;28;827;-32
2022/03/09 02:29:10;;;;;;;;;;;;;;;;;;1031346;28;867;-31
2022/03/09 02:29:40;;;;;;;;;;;;;;;;;;1031220;28;887;-29
2022/03/09 02:30:15;;;;;;;;;;;;;;;;;;1031274;28;930;-28
2022/03/09 02:30:45;;;;;;;;;;;;;;;;;;1031205;28;966;-31
2022/03/09 02:31:16;;;;;;;;;;;;;;;;;;1031388;28;811;-31
2022/03/09 02:31:46;;;;;;;;;;;;;;;;;;1031239;28;952;-29
2022/03/09 02:32:17;;;;;;;;;;;;;;;;;;1031229;28;866;-33
2022/03/09 02:32:48;;;;;;;;;;;;;;;;;;1033434;28;1035;-28
2022/03/09 02:33:19;;;;;;;;;;;;;;;;;;1034873;28;772;-29
2022/03/09 02:33:49;;;;;;;;;;;;;;;;;;1035065;28;1012;-34
2022/03/09 02:34:19;;;;;;;;;;;;;;;;;;1035401;28;874;-29
2022/03/09 02:34:50;;;;;;;;;;;;;;;;;;1035226;28;871;-30
2022/03/09 02:35:20;;;;;;;;;;;;;;;;;;1035427;28;787;-29
2022/03/09 02:35:53;;;;;;;;;;;;;;;;;;1035316;28;894;-28
2022/03/09 02:36:24;;;;;;;;;;;;;;;;;;1035259;28;867;-32
2022/03/09 02:36:54;;;;;;;;;;;;;;;;;;1035367;28;1276;-31
2022/03/09 02:37:24;;;;;;;;;;;;;;;;;;1035277;28;929;-29
2022/03/09 02:37:54;;;;;;;;;;;;;;;;;;1035133;28;973;-26
2022/03/09 02:38:25;;;;;;;;;;;;;;;;;;1035630;28;906;-34
2022/03/09 02:38:57;;;;;;;;;;;;;;;;;;1035947;28;1981;-30
2022/03/09 02:39:27;;;;;;;;;;;;;;;;;;1036089;28;818;-28
2022/03/09 02:39:57;;;;;;;;;;;;;;;;;;1036066;28;949;-31
2022/03/09 02:40:28;;;;;;;;;;;;;;;;;;1035350;28;1757;-31
2022/03/09 02:40:58;;;;;;;;;;;;;;;;;;1036122;28;937;-32
2022/03/09 02:41:33;;;;;;;;;;;;;;;;;;1035967;28;929;-31
2022/03/09 02:42:04;;;;;;;;;;;;;;;;;;1036098;28;838;-31
2022/03/09 02:42:34;;;;;;;;;;;;;;;;;;1035960;28;902;-28
2022/03/09 02:43:04;;;;;;;;;;;;;;;;;;1036099;28;906;-33
2022/03/09 02:43:35;;;;;;;;;;;;;;;;;;1035983;28;1622;-32
2022/03/09 02:44:05;;;;;;;;;;;;;;;;;;1036073;28;1408;-32
2022/03/09 02:44:36;;;;;;;;;;;;;;;;;;1035961;28;926;-33
2022/03/09 02:45:06;;;;;;;;;;;;;;;;;;1036149;28;882;-33
2022/03/09 02:45:36;;;;;;;;;;;;;;;;;;1035956;28;878;-32
2022/03/09 02:46:07;;;;;;;;;;;;;;;;;;1036004;28;1297;-31
2022/03/09 02:46:37;;;;;;;;;;;;;;;;;;1036003;28;922;-29
2022/03/09 02:47:07;;;;;;;;;;;;;;;;;;1035952;28;950;-28
2022/03/09 02:47:39;;;;;;;;;;;;;;;;;;1035930;28;933;-31
2022/03/09 02:48:09;;;;;;;;;;;;;;;;;;1035398;28;950;-31
2022/03/09 02:48:40;;;;;;;;;;;;;;;;;;1036047;28;819;-28
2022/03/09 02:49:10;;;;;;;;;;;;;;;;;;1036089;28;890;-33
2022/03/09 02:49:40;;;;;;;;;;;;;;;;;;1035956;28;1010;-29
2022/03/09 02:50:14;;;;;;;;;;;;;;;;;;1036111;28;937;-26
2022/03/09 02:50:45;;;;;;;;;;;;;;;;;;1035491;28;981;-29
2022/03/09 02:51:15;;;;;;;;;;;;;;;;;;1036039;28;1021;-32
2022/03/09 02:51:45;;;;;;;;;;;;;;;;;;1035899;28;966;-34
2022/03/09 02:52:16;;;;;;;;;;;;;;;;;;1036084;28;946;-29
2022/03/09 02:52:46;;;;;;;;;;;;;;;;;;1035949;28;783;-33
2022/03/09 02:53:16;;;;;;;;;;;;;;;;;;1035965;28;617;-31
2022/03/09 02:53:48;;;;;;;;;;;;;;;;;;1035910;28;1010;-33
2022/03/09 02:54:18;;;;;;;;;;;;;;;;;;1036243;28;898;-33
2022/03/09 02:54:50;;;;;;;;;;;;;;;;;;1035854;28;846;-27
2022/03/09 02:55:20;;;;;;;;;;;;;;;;;;1035392;28;934;-30
2022/03/09 02:55:51;;;;;;;;;;;;;;;;;;1035890;28;973;-31
2022/03/09 02:56:21;;;;;;;;;;;;;;;;;;1036110;28;835;-31
2022/03/09 02:56:51;;;;;;;;;;;;;;;;;;1035975;28;811;-33
2022/03/09 02:57:22;;;;;;;;;;;;;;;;;;1035995;28;889;-28
2022/03/09 02:57:52;;;;;;;;;;;;;;;;;;1035848;28;874;-31
2022/03/09 02:58:23;;;;;;;;;;;;;;;;;;1036054;28;1041;-33
2022/03/09 02:58:53;;;;;;;;;;;;;;;;;;1035774;28;1975;-28
2022/03/09 02:59:23;;;;;;;;;;;;;;;;;;1036057;28;838;-31
2022/03/09 02:59:54;;;;;;;;;;;;;;;;;;1035973;28;894;-34
2022/03/09 03:00:24;;;;;;;;;;;;;;;;;;1035988;28;1546;-31
2022/03/09 03:00:54;;;;;;;;;;;;;;;;;;1036007;28;811;-31
2022/03/09 03:01:25;;;;;;;;;;;;;;;;;;1035893;28;981;-30
2022/03/09 03:01:55;;;;;;;;;;;;;;;;;;1035929;28;917;-29
2022/03/09 03:02:25;;;;;;;;;;;;;;;;;;1036002;28;950;-32
2022/03/09 03:02:56;;;;;;;;;;;;;;;;;;1035291;28;823;-29
2022/03/09 03:03:26;;;;;;;;;;;;;;;;;;1036033;28;823;-31
2022/03/09 03:03:56;;;;;;;;;;;;;;;;;;1035847;28;909;-30
2022/03/09 03:04:27;;;;;;;;;;;;;;;;;;1035396;28;973;-29
2022/03/09 03:04:57;;;;;;;;;;;;;;;;;;1031961;28;926;-32
2022/03/09 03:05:27;;;;;;;;;;;;;;;;;;1031887;28;823;-32
2022/03/09 03:05:58;;;;;;;;;;;;;;;;;;1031890;28;938;-28
2022/03/09 03:06:28;;;;;;;;;;;;;;;;;;1032013;28;838;-33
2022/03/09 03:06:58;;;;;;;;;;;;;;;;;;1031868;28;815;-32
2022/03/09 03:07:29;;;;;;;;;;;;;;;;;;1031964;28;874;-29
2022/03/09 03:07:59;;;;;;;;;;;;;;;;;;1031669;28;965;-29
2022/03/09 03:08:30;;;;;;;;;;;;;;;;;;1031956;28;973;-31
2022/03/09 03:09:00;;;;;;;;;;;;;;;;;;1031889;28;866;-28
2022/03/09 03:09:31;;;;;;;;;;;;;;;;;;1031883;28;1013;-33
2022/03/09 03:10:05;;;;;;;;;;;;;;;;;;1031395;28;1605;-29
2022/03/09 03:10:35;;;;;;;;;;;;;;;;;;1032051;28;788;-30
2022/03/09 03:11:09;;;;;;;;;;;;;;;;;;1031773;28;915;-32
2022/03/09 03:11:40;;;;;;;;;;;;;;;;;;1032017;28;895;-28
2022/03/09 03:12:10;;;;;;;;;;;;;;;;;;1031647;28;851;-29
2022/03/09 03:12:41;;;;;;;;;;;;;;;;;;1032011;28;870;-31
2022/03/09 03:13:11;;;;;;;;;;;;;;;;;;1031749;28;835;-31
2022/03/09 03:13:41;;;;;;;;;;;;;;;;;;1031976;28;906;-27
2022/03/09 03:14:12;;;;;;;;;;;;;;;;;;1031696;28;954;-28
2022/03/09 03:14:42;;;;;;;;;;;;;;;;;;1031925;28;941;-32
2022/03/09 03:15:12;;;;;;;;;;;;;;;;;;1031936;28;803;-29
2022/03/09 03:15:43;;;;;;;;;;;;;;;;;;1031990;28;843;-30
2022/03/09 03:16:13;;;;;;;;;;;;;;;;;;1031743;28;918;-30
2022/03/09 03:16:44;;;;;;;;;;;;;;;;;;1031958;28;937;-29
2022/03/09 03:17:14;;;;;;;;;;;;;;;;;;1031760;28;866;-33
2022/03/09 03:17:45;;;;;;;;;;;;;;;;;;1031144;28;843;-31
2022/03/09 03:18:15;;;;;;;;;;;;;;;;;;1031799;28;859;-32
2022/03/09 03:18:46;;;;;;;;;;;;;;;;;;1031815;28;1910;-31
2022/03/09 03:19:16;;;;;;;;;;;;;;;;;;1031432;28;902;-30
2022/03/09 03:19:46;;;;;;;;;;;;;;;;;;1031512;28;945;-32
2022/03/09 03:20:17;;;;;;;;;;;;;;;;;;1031521;28;903;-30
2022/03/09 03:20:48;;;;;;;;;;;;;;;;;;1031593;28;874;-33
2022/03/09 03:21:18;;;;;;;;;;;;;;;;;;1031779;28;662;-30
2022/03/09 03:21:48;;;;;;;;;;;;;;;;;;1031876;28;740;-32
2022/03/09 03:22:19;;;;;;;;;;;;;;;;;;1031827;28;930;-29
2022/03/09 03:22:49;;;;;;;;;;;;;;;;;;1031777;28;874;-31
2022/03/09 03:23:28;;;;;;;;;;;;;;;;;;1031803;28;970;-30
2022/03/09 03:23:58;;;;;;;;;;;;;;;;;;1031740;28;973;-29
2022/03/09 03:24:29;;;;;;;;;;;;;;;;;;1031900;28;764;-30
2022/03/09 03:24:59;;;;;;;;;;;;;;;;;;1031127;28;910;-31
2022/03/09 03:25:30;;;;;;;;;;;;;;;;;;1035653;28;1174;-29
2022/03/09 03:26:00;;;;;;;;;;;;;;;;;;1036048;28;902;-31
2022/03/09 03:26:31;;;;;;;;;;;;;;;;;;1035794;28;997;-31
2022/03/09 03:27:01;;;;;;;;;;;;;;;;;;1035905;28;874;-31
2022/03/09 03:27:31;;;;;;;;;;;;;;;;;;1035755;28;887;-32
2022/03/09 03:28:02;;;;;;;;;;;;;;;;;;1035881;28;902;-32
2022/03/09 03:28:32;;;;;;;;;;;;;;;;;;1035941;28;944;-31
2022/03/09 03:29:03;;;;;;;;;;;;;;;;;;1035650;28;926;-34
2022/03/09 03:29:33;;;;;;;;;;;;;;;;;;1036015;28;894;-34
2022/03/09 03:30:04;;;;;;;;;;;;;;;;;;1035823;28;823;-34
2022/03/09 03:30:34;;;;;;;;;;;;;;;;;;1035864;28;862;-29
2022/03/09 03:31:06;;;;;;;;;;;;;;;;;;1035732;28;974;-32
2022/03/09 03:31:36;;;;;;;;;;;;;;;;;;1035830;28;974;-32
2022/03/09 03:32:07;;;;;;;;;;;;;;;;;;1035696;28;984;-31
2022/03/09 03:32:37;;;;;;;;;;;;;;;;;;1034585;28;1051;-28
2022/03/09 03:33:07;;;;;;;;;;;;;;;;;;1031140;28;906;-32
2022/03/09 03:33:38;;;;;;;;;;;;;;;;;;1031945;28;946;-30
2022/03/09 03:34:08;;;;;;;;;;;;;;;;;;1031317;28;914;-33
2022/03/09 03:34:38;;;;;;;;;;;;;;;;;;1031814;28;1001;-32
2022/03/09 03:35:10;;;;;;;;;;;;;;;;;;1031705;28;927;-33
2022/03/09 03:35:41;;;;;;;;;;;;;;;;;;1031872;28;855;-28
2022/03/09 03:36:11;;;;;;;;;;;;;;;;;;1031837;28;851;-31
2022/03/09 03:36:41;;;;;;;;;;;;;;;;;;1031948;28;922;-28
2022/03/09 03:37:11;;;;;;;;;;;;;;;;;;1031537;28;895;-29
2022/03/09 03:37:42;;;;;;;;;;;;;;;;;;1031623;28;895;-34
2022/03/09 03:38:13;;;;;;;;;;;;;;;;;;1031790;28;985;-30
2022/03/09 03:38:43;;;;;;;;;;;;;;;;;;1031661;28;1977;-30